sensor_id;sensor_type;location;lat;lon;timestamp;P1;durP1;ratioP1;P2;durP2;ratioP2
21507;SDS011;10915;54.352;9.074;2022-08-19T20:09:17;3.37;;;2.10;;
21507;SDS011;10915;54.352;9.074;2022-08-19T20:16:44;4.50;;;2.93;;
21507;SDS011;10915;54.352;9.074;2022-08-19T20:19:14;4.80;;;2.77;;
21507;SDS011;10915;54.352;9.074;2022-08-19T20:21:43;6.00;;;3.13;;
21507;SDS011;10915;54.352;9.074;2022-08-19T20:24:12;4.37;;;2.90;;
21507;SDS011;10915;54.352;9.074;2022-08-19T20:26:39;4.27;;;2.93;;
21507;SDS011;10915;54.352;9.074;2022-08-19T20:29:06;5.27;;;2.83;;
21507;SDS011;10915;54.352;9.074;2022-08-19T20:31:32;3.70;;;3.10;;
21507;SDS011;10915;54.352;9.074;2022-08-19T20:33:58;6.53;;;3.60;;
21507;SDS011;10915;54.352;9.074;2022-08-19T20:36:24;4.37;;;3.20;;
21507;SDS011;10915;54.352;9.074;2022-08-19T20:38:50;5.30;;;3.10;;
21507;SDS011;10915;54.352;9.074;2022-08-19T20:41:16;8.17;;;3.63;;
21507;SDS011;10915;54.352;9.074;2022-08-19T20:43:44;4.60;;;3.40;;
21507;SDS011;10915;54.352;9.074;2022-08-19T20:46:09;6.43;;;3.77;;
21507;SDS011;10915;54.352;9.074;2022-08-19T20:48:35;6.50;;;4.03;;
21507;SDS011;10915;54.352;9.074;2022-08-19T20:51:03;7.40;;;4.17;;
21507;SDS011;10915;54.352;9.074;2022-08-19T20:53:29;5.57;;;3.60;;
21507;SDS011;10915;54.352;9.074;2022-08-19T20:55:55;6.23;;;4.13;;
21507;SDS011;10915;54.352;9.074;2022-08-19T20:58:22;6.27;;;4.17;;
21507;SDS011;10915;54.352;9.074;2022-08-19T21:00:50;7.77;;;4.83;;
21507;SDS011;10915;54.352;9.074;2022-08-19T21:03:19;6.10;;;4.40;;
21507;SDS011;10915;54.352;9.074;2022-08-19T21:05:47;9.27;;;4.70;;
21507;SDS011;10915;54.352;9.074;2022-08-19T21:08:13;6.47;;;4.53;;
21507;SDS011;10915;54.352;9.074;2022-08-19T21:10:42;7.07;;;4.30;;
21507;SDS011;10915;54.352;9.074;2022-08-19T21:13:10;6.03;;;4.93;;
21507;SDS011;10915;54.352;9.074;2022-08-19T21:15:37;9.70;;;6.13;;
21507;SDS011;10915;54.352;9.074;2022-08-19T21:18:05;8.33;;;5.43;;
21507;SDS011;10915;54.352;9.074;2022-08-19T21:20:31;10.20;;;6.77;;
21507;SDS011;10915;54.352;9.074;2022-08-19T21:23:01;8.47;;;6.37;;
21507;SDS011;10915;54.352;9.074;2022-08-19T21:25:28;8.47;;;6.37;;
21507;SDS011;10915;54.352;9.074;2022-08-19T21:27:54;7.30;;;6.10;;
21507;SDS011;10915;54.352;9.074;2022-08-19T21:30:20;8.17;;;6.47;;
21507;SDS011;10915;54.352;9.074;2022-08-19T21:32:45;9.93;;;6.50;;
21507;SDS011;10915;54.352;9.074;2022-08-19T21:35:12;9.20;;;7.30;;
21507;SDS011;10915;54.352;9.074;2022-08-19T21:37:37;8.00;;;7.00;;
21507;SDS011;10915;54.352;9.074;2022-08-19T21:40:04;10.17;;;8.17;;
21507;SDS011;10915;54.352;9.074;2022-08-19T21:42:31;13.53;;;9.20;;
21507;SDS011;10915;54.352;9.074;2022-08-19T21:44:56;10.87;;;8.60;;
21507;SDS011;10915;54.352;9.074;2022-08-19T21:47:22;11.30;;;9.23;;
21507;SDS011;10915;54.352;9.074;2022-08-19T21:49:47;12.43;;;9.13;;
21507;SDS011;10915;54.352;9.074;2022-08-19T21:52:19;16.90;;;10.67;;
21507;SDS011;10915;54.352;9.074;2022-08-19T21:54:48;16.80;;;11.83;;
21507;SDS011;10915;54.352;9.074;2022-08-19T21:57:13;14.60;;;12.40;;
21507;SDS011;10915;54.352;9.074;2022-08-19T21:59:39;17.20;;;13.13;;
21507;SDS011;10915;54.352;9.074;2022-08-19T22:02:05;17.13;;;13.33;;
21507;SDS011;10915;54.352;9.074;2022-08-19T22:04:31;18.97;;;14.53;;
21507;SDS011;10915;54.352;9.074;2022-08-19T22:06:56;18.17;;;14.50;;
21507;SDS011;10915;54.352;9.074;2022-08-19T22:09:22;20.00;;;15.70;;
21507;SDS011;10915;54.352;9.074;2022-08-19T22:11:47;19.37;;;15.33;;
21507;SDS011;10915;54.352;9.074;2022-08-19T22:14:13;18.03;;;16.00;;
21507;SDS011;10915;54.352;9.074;2022-08-19T22:16:39;18.67;;;15.43;;
21507;SDS011;10915;54.352;9.074;2022-08-19T22:19:05;19.43;;;16.47;;
21507;SDS011;10915;54.352;9.074;2022-08-19T22:21:31;24.07;;;17.33;;
21507;SDS011;10915;54.352;9.074;2022-08-19T22:23:57;23.90;;;17.50;;
21507;SDS011;10915;54.352;9.074;2022-08-19T22:26:23;21.87;;;16.63;;
21507;SDS011;10915;54.352;9.074;2022-08-19T22:28:48;20.07;;;15.37;;
21507;SDS011;10915;54.352;9.074;2022-08-19T22:31:14;16.83;;;14.00;;
21507;SDS011;10915;54.352;9.074;2022-08-19T22:33:40;17.70;;;12.93;;
21507;SDS011;10915;54.352;9.074;2022-08-19T22:36:06;17.57;;;13.03;;
21507;SDS011;10915;54.352;9.074;2022-08-19T22:38:32;20.10;;;12.93;;
21507;SDS011;10915;54.352;9.074;2022-08-19T22:40:59;20.13;;;16.30;;
21507;SDS011;10915;54.352;9.074;2022-08-19T22:43:26;22.17;;;16.60;;
21507;SDS011;10915;54.352;9.074;2022-08-19T22:45:58;20.70;;;15.73;;
21507;SDS011;10915;54.352;9.074;2022-08-19T22:48:25;22.03;;;16.53;;
21507;SDS011;10915;54.352;9.074;2022-08-19T22:50:53;17.27;;;15.37;;
21507;SDS011;10915;54.352;9.074;2022-08-19T22:53:39;21.67;;;16.70;;
21507;SDS011;10915;54.352;9.074;2022-08-19T22:56:08;22.10;;;16.43;;
21507;SDS011;10915;54.352;9.074;2022-08-19T22:58:34;22.03;;;16.83;;
21507;SDS011;10915;54.352;9.074;2022-08-19T23:01:01;22.93;;;16.73;;
21507;SDS011;10915;54.352;9.074;2022-08-19T23:03:27;23.63;;;18.63;;
21507;SDS011;10915;54.352;9.074;2022-08-19T23:05:53;26.27;;;19.73;;
21507;SDS011;10915;54.352;9.074;2022-08-19T23:08:20;27.27;;;19.23;;
21507;SDS011;10915;54.352;9.074;2022-08-19T23:10:45;25.10;;;18.97;;
21507;SDS011;10915;54.352;9.074;2022-08-19T23:13:12;25.30;;;18.30;;
21507;SDS011;10915;54.352;9.074;2022-08-19T23:15:41;24.03;;;19.17;;
21507;SDS011;10915;54.352;9.074;2022-08-19T23:18:08;26.13;;;19.50;;
21507;SDS011;10915;54.352;9.074;2022-08-19T23:20:35;23.57;;;19.20;;
21507;SDS011;10915;54.352;9.074;2022-08-19T23:23:03;25.83;;;19.47;;
21507;SDS011;10915;54.352;9.074;2022-08-19T23:25:32;25.63;;;17.83;;
21507;SDS011;10915;54.352;9.074;2022-08-19T23:27:59;27.50;;;20.17;;
21507;SDS011;10915;54.352;9.074;2022-08-19T23:30:44;28.47;;;22.73;;
21507;SDS011;10915;54.352;9.074;2022-08-19T23:33:19;25.77;;;19.30;;
21507;SDS011;10915;54.352;9.074;2022-08-19T23:35:51;31.40;;;21.73;;
21507;SDS011;10915;54.352;9.074;2022-08-19T23:38:20;27.20;;;21.50;;
21507;SDS011;10915;54.352;9.074;2022-08-19T23:40:47;23.93;;;18.90;;
21507;SDS011;10915;54.352;9.074;2022-08-19T23:43:18;30.63;;;21.43;;
21507;SDS011;10915;54.352;9.074;2022-08-19T23:45:45;30.37;;;21.00;;
21507;SDS011;10915;54.352;9.074;2022-08-19T23:48:11;30.17;;;21.97;;
21507;SDS011;10915;54.352;9.074;2022-08-19T23:50:38;30.00;;;22.70;;
21507;SDS011;10915;54.352;9.074;2022-08-19T23:53:05;27.23;;;20.97;;
21507;SDS011;10915;54.352;9.074;2022-08-19T23:55:32;25.00;;;19.40;;
21507;SDS011;10915;54.352;9.074;2022-08-19T23:58:00;25.83;;;18.00;;
